Time;durP1;ratioP1;P1;durP2;ratioP2;P2;SDS_P1;SDS_P2;PMS_P1;PMS_P2;Temp;Humidity;BMP_temperature;BMP_pressure;BME280_temperature;BME280_humidity;BME280_pressure;Samples;Min_cycle;Max_cycle;Signal;HPM_P1;HPM_P2
2023/03/19 00:01:30;;;;;;;8.00;4.97;;;;;;;;;;6303881;22;20007;-78
2023/03/19 00:03:56;;;;;;;5.40;4.10;;;;;;;;;;6304272;22;20025;-78
2023/03/19 00:06:22;;;;;;;7.10;5.22;;;;;;;;;;6276655;22;20039;-78
2023/03/19 00:08:48;;;;;;;5.25;4.80;;;;;;;;;;6316287;22;20022;-77
2023/03/19 00:11:14;;;;;;;12.45;4.80;;;;;;;;;;6321741;22;20015;-76
2023/03/19 00:13:40;;;;;;;5.35;4.25;;;;;;;;;;6315245;22;20011;-76
2023/03/19 00:16:07;;;;;;;12.10;5.80;;;;;;;;;;6293006;22;20040;-77
2023/03/19 00:18:33;;;;;;;7.22;6.47;;;;;;;;;;6293675;22;20023;-77
2023/03/19 00:21:00;;;;;;;10.35;5.80;;;;;;;;;;6320121;22;20008;-78
2023/03/19 00:23:26;;;;;;;9.15;6.55;;;;;;;;;;6320529;22;20019;-77
2023/03/19 00:25:53;;;;;;;9.52;6.45;;;;;;;;;;6255827;22;20034;-78
2023/03/19 00:28:21;;;;;;;11.75;6.70;;;;;;;;;;6275930;22;20038;-77
2023/03/19 00:30:47;;;;;;;10.05;6.15;;;;;;;;;;6225061;22;20013;-78
2023/03/19 00:33:13;;;;;;;6.30;5.70;;;;;;;;;;6275749;22;20890;-77
2023/03/19 00:35:40;;;;;;;9.10;5.70;;;;;;;;;;6303958;22;20404;-78
2023/03/19 00:38:06;;;;;;;13.02;7.70;;;;;;;;;;6275900;22;20011;-78
2023/03/19 00:40:32;;;;;;;8.88;6.40;;;;;;;;;;6278435;22;20376;-77
2023/03/19 00:42:59;;;;;;;13.85;6.97;;;;;;;;;;6303844;22;20026;-79
2023/03/19 00:45:25;;;;;;;10.05;6.53;;;;;;;;;;6275926;22;20012;-78
2023/03/19 00:47:51;;;;;;;8.48;6.38;;;;;;;;;;6302837;22;20117;-79
2023/03/19 00:50:17;;;;;;;8.48;7.45;;;;;;;;;;6303429;22;20007;-79
2023/03/19 00:52:43;;;;;;;13.98;7.13;;;;;;;;;;6301873;22;20019;-78
2023/03/19 00:55:09;;;;;;;8.30;6.90;;;;;;;;;;6302748;22;20447;-79
2023/03/19 00:57:35;;;;;;;10.95;6.43;;;;;;;;;;6300811;22;20067;-79
2023/03/19 01:00:02;;;;;;;11.13;6.45;;;;;;;;;;6276027;22;20440;-77
2023/03/19 01:02:29;;;;;;;10.27;6.18;;;;;;;;;;6303330;22;20023;-78
2023/03/19 01:04:55;;;;;;;9.68;6.40;;;;;;;;;;6302888;22;20354;-79
2023/03/19 01:07:22;;;;;;;10.90;6.53;;;;;;;;;;6302860;22;20015;-78
2023/03/19 01:09:48;;;;;;;6.45;5.70;;;;;;;;;;6275580;22;20078;-79
2023/03/19 01:12:14;;;;;;;6.38;5.40;;;;;;;;;;6275457;22;20429;-77
2023/03/19 01:14:40;;;;;;;8.32;5.72;;;;;;;;;;6302119;22;20363;-76
2023/03/19 01:17:07;;;;;;;7.28;5.22;;;;;;;;;;6274980;22;20018;-78
2023/03/19 01:19:34;;;;;;;6.32;5.35;;;;;;;;;;6224105;22;20112;-76
2023/03/19 01:22:01;;;;;;;6.68;4.78;;;;;;;;;;6302475;22;20003;-76
2023/03/19 01:24:29;;;;;;;7.03;5.60;;;;;;;;;;6275537;22;20015;-78
2023/03/19 01:26:55;;;;;;;9.23;5.60;;;;;;;;;;6276773;22;20018;-78
2023/03/19 01:29:30;;;;;;;7.25;5.50;;;;;;;;;;6277451;22;20460;-79
2023/03/19 01:32:00;;;;;;;7.88;5.40;;;;;;;;;;6252135;22;20069;-77
2023/03/19 01:35:01;;;;;;;7.03;5.88;;;;;;;;;;6095879;23;20018;-78
2023/03/19 01:37:28;;;;;;;6.68;5.15;;;;;;;;;;6241560;22;20515;-78
2023/03/19 01:39:55;;;;;;;5.45;4.85;;;;;;;;;;6304231;22;20024;-77
2023/03/19 01:42:21;;;;;;;9.02;5.38;;;;;;;;;;6251960;22;20030;-77
2023/03/19 01:44:49;;;;;;;10.65;5.22;;;;;;;;;;6277236;22;20011;-78
2023/03/19 01:47:38;;;;;;;7.32;5.60;;;;;;;;;;6277256;22;20011;-79
2023/03/19 01:50:19;;;;;;;9.75;5.70;;;;;;;;;;6306132;22;20074;-79
2023/03/19 01:52:45;;;;;;;8.07;5.03;;;;;;;;;;6252905;22;20079;-79
2023/03/19 01:55:34;;;;;;;6.68;5.68;;;;;;;;;;6280985;22;20017;-78
2023/03/19 01:58:23;;;;;;;8.65;5.13;;;;;;;;;;6302886;22;20077;-78
2023/03/19 02:01:25;;;;;;;5.25;4.75;;;;;;;;;;6192154;23;20017;-79
2023/03/19 02:03:53;;;;;;;5.85;5.25;;;;;;;;;;6267188;22;20027;-78
2023/03/19 02:06:27;;;;;;;11.80;7.13;;;;;;;;;;6278755;22;20011;-77
2023/03/19 02:08:55;;;;;;;7.18;4.85;;;;;;;;;;6253289;22;20064;-77
2023/03/19 02:11:27;;;;;;;5.55;4.55;;;;;;;;;;6276734;22;20015;-77
2023/03/19 02:13:54;;;;;;;5.75;5.15;;;;;;;;;;6278237;22;20011;-78
2023/03/19 02:16:21;;;;;;;5.35;4.85;;;;;;;;;;6278218;22;20011;-77
2023/03/19 02:18:47;;;;;;;10.88;4.93;;;;;;;;;;6308730;22;20057;-78
2023/03/19 02:21:14;;;;;;;5.60;5.07;;;;;;;;;;6280993;22;20015;-78
2023/03/19 02:24:01;;;;;;;8.65;5.32;;;;;;;;;;6252278;22;20019;-78
2023/03/19 02:26:56;;;;;;;6.15;4.72;;;;;;;;;;6282621;22;20439;-78
2023/03/19 02:29:22;;;;;;;9.15;4.85;;;;;;;;;;6278782;22;20018;-77
2023/03/19 02:31:49;;;;;;;5.07;4.55;;;;;;;;;;6252362;22;20038;-79
2023/03/19 02:34:18;;;;;;;5.75;5.00;;;;;;;;;;6305627;22;20018;-78
2023/03/19 02:36:46;;;;;;;4.47;4.07;;;;;;;;;;6305787;22;20011;-79
2023/03/19 02:39:14;;;;;;;8.48;4.78;;;;;;;;;;6252026;22;20416;-79
2023/03/19 02:41:40;;;;;;;6.97;5.15;;;;;;;;;;6252720;22;20023;-78
2023/03/19 02:44:06;;;;;;;5.05;4.60;;;;;;;;;;6277731;22;20109;-77
2023/03/19 02:46:32;;;;;;;5.68;5.18;;;;;;;;;;6277903;22;20038;-78
2023/03/19 02:48:58;;;;;;;8.15;5.43;;;;;;;;;;6304338;22;20018;-78
2023/03/19 02:51:25;;;;;;;5.55;4.68;;;;;;;;;;6305659;22;20366;-78
2023/03/19 02:53:51;;;;;;;5.75;4.65;;;;;;;;;;6306879;22;20015;-79
2023/03/19 02:56:17;;;;;;;5.45;4.72;;;;;;;;;;6307756;22;20090;-78
2023/03/19 02:58:43;;;;;;;6.82;4.20;;;;;;;;;;6311033;22;20106;-81
2023/03/19 03:01:09;;;;;;;5.18;4.68;;;;;;;;;;6257800;22;20011;-80
2023/03/19 03:03:36;;;;;;;5.38;4.88;;;;;;;;;;6283185;22;20114;-81
2023/03/19 03:06:02;;;;;;;6.63;5.90;;;;;;;;;;6283956;22;20007;-80
2023/03/19 03:08:28;;;;;;;8.52;5.22;;;;;;;;;;6310870;22;20011;-81
2023/03/19 03:10:54;;;;;;;10.70;5.22;;;;;;;;;;6258436;22;20057;-80
2023/03/19 03:13:21;;;;;;;4.85;4.32;;;;;;;;;;6311322;22;20015;-80
2023/03/19 03:15:47;;;;;;;5.45;4.95;;;;;;;;;;6307203;22;20068;-80
2023/03/19 03:18:13;;;;;;;4.65;4.05;;;;;;;;;;6279499;22;20043;-79
2023/03/19 03:20:39;;;;;;;6.63;4.70;;;;;;;;;;6229932;22;20477;-79
2023/03/19 03:23:05;;;;;;;5.38;4.38;;;;;;;;;;6285880;22;20006;-80
2023/03/19 03:25:31;;;;;;;6.40;3.70;;;;;;;;;;6317528;22;20053;-81
2023/03/19 03:27:58;;;;;;;4.72;4.25;;;;;;;;;;6314374;22;20056;-80
2023/03/19 03:30:25;;;;;;;4.55;4.15;;;;;;;;;;6277629;22;20046;-79
2023/03/19 03:32:51;;;;;;;5.15;4.70;;;;;;;;;;6252825;22;20352;-79
2023/03/19 03:35:21;;;;;;;4.97;4.50;;;;;;;;;;6307198;22;20094;-77
2023/03/19 03:37:48;;;;;;;4.90;4.50;;;;;;;;;;6278927;22;20007;-82
2023/03/19 03:40:15;;;;;;;7.82;5.55;;;;;;;;;;6306698;22;20085;-77
2023/03/19 03:42:41;;;;;;;5.38;4.88;;;;;;;;;;6279028;22;20019;-79
2023/03/19 03:45:09;;;;;;;5.60;4.70;;;;;;;;;;6284023;22;20018;-80
2023/03/19 03:47:36;;;;;;;7.28;5.05;;;;;;;;;;6269357;22;20011;-81
2023/03/19 03:50:06;;;;;;;6.70;4.97;;;;;;;;;;6297690;22;20011;-81
2023/03/19 03:52:33;;;;;;;6.60;4.50;;;;;;;;;;6297791;22;20011;-83
2023/03/19 03:54:59;;;;;;;8.32;5.88;;;;;;;;;;6295838;22;20070;-80
2023/03/19 03:57:26;;;;;;;5.35;4.85;;;;;;;;;;6290801;22;20038;-81
2023/03/19 03:59:53;;;;;;;6.35;5.75;;;;;;;;;;6268058;22;20074;-80
2023/03/19 04:02:20;;;;;;;5.18;4.63;;;;;;;;;;6290411;22;20305;-81
2023/03/19 04:04:46;;;;;;;6.70;4.90;;;;;;;;;;6280986;22;20068;-80
2023/03/19 04:07:12;;;;;;;9.95;5.97;;;;;;;;;;6259536;22;20007;-80
2023/03/19 04:09:45;;;;;;;6.22;5.38;;;;;;;;;;6288115;22;20011;-81
2023/03/19 04:12:12;;;;;;;5.43;4.95;;;;;;;;;;6317151;22;19997;-82
2023/03/19 04:14:38;;;;;;;6.55;5.65;;;;;;;;;;6315199;22;20476;-82
2023/03/19 04:17:05;;;;;;;10.98;6.18;;;;;;;;;;6286495;22;20011;-81
2023/03/19 04:19:31;;;;;;;5.38;4.93;;;;;;;;;;6286845;22;20015;-81
2023/03/19 04:21:58;;;;;;;8.23;6.22;;;;;;;;;;6314465;22;20014;-82
2023/03/19 04:24:25;;;;;;;6.53;5.70;;;;;;;;;;6265914;22;20019;-81
2023/03/19 04:26:52;;;;;;;7.18;5.53;;;;;;;;;;6284333;22;20099;-81
2023/03/19 04:29:18;;;;;;;7.50;5.72;;;;;;;;;;6259048;22;20100;-82
2023/03/19 04:31:44;;;;;;;4.82;4.22;;;;;;;;;;6312686;22;20022;-80
2023/03/19 04:34:11;;;;;;;8.02;5.50;;;;;;;;;;6281680;22;20011;-80
2023/03/19 04:36:37;;;;;;;4.15;3.85;;;;;;;;;;6310424;22;20007;-81
2023/03/19 04:39:03;;;;;;;9.85;5.72;;;;;;;;;;6309821;22;20026;-80
2023/03/19 04:41:29;;;;;;;9.13;5.10;;;;;;;;;;6253903;22;20470;-80
2023/03/19 04:44:06;;;;;;;10.43;5.60;;;;;;;;;;6279146;22;20019;-80
2023/03/19 04:46:33;;;;;;;6.88;5.20;;;;;;;;;;6279264;22;20011;-81
2023/03/19 04:49:00;;;;;;;4.38;3.97;;;;;;;;;;6306346;22;20017;-80
2023/03/19 04:51:28;;;;;;;8.52;5.70;;;;;;;;;;6254340;22;20148;-82
2023/03/19 04:53:54;;;;;;;6.82;5.18;;;;;;;;;;6252996;22;20217;-80
2023/03/19 04:56:20;;;;;;;6.13;5.53;;;;;;;;;;6278375;22;20046;-79
2023/03/19 04:58:46;;;;;;;7.85;5.88;;;;;;;;;;6304473;22;20015;-78
2023/03/19 05:01:13;;;;;;;6.05;5.45;;;;;;;;;;6277012;22;20007;-78
2023/03/19 05:03:56;;;;;;;7.10;6.40;;;;;;;;;;6276791;22;20019;-79
2023/03/19 05:06:23;;;;;;;8.48;6.95;;;;;;;;;;6277248;22;20018;-79
2023/03/19 05:08:49;;;;;;;5.88;5.38;;;;;;;;;;6275987;22;20046;-77
2023/03/19 05:11:17;;;;;;;6.63;5.53;;;;;;;;;;6276064;22;20038;-78
2023/03/19 05:13:58;;;;;;;;;;;;;;;;;;6250870;22;20015;-78
2023/03/19 05:16:30;;;;;;;10.85;7.15;;;;;;;;;;6276211;22;20413;-78
2023/03/19 05:18:57;;;;;;;7.50;6.70;;;;;;;;;;6275423;22;20020;-78
2023/03/19 05:21:23;;;;;;;12.52;7.78;;;;;;;;;;6276101;22;20094;-78
2023/03/19 05:23:53;;;;;;;8.23;7.20;;;;;;;;;;6249998;22;20041;-77
2023/03/19 05:26:21;;;;;;;8.13;6.53;;;;;;;;;;6250758;22;20007;-76
2023/03/19 05:29:22;;;;;;;11.32;9.00;;;;;;;;;;6177619;23;20100;-77
2023/03/19 05:32:09;;;;;;;7.00;5.32;;;;;;;;;;6274164;22;20007;-77
2023/03/19 05:34:36;;;;;;;7.60;6.05;;;;;;;;;;6275847;22;20011;-78
2023/03/19 05:37:02;;;;;;;15.07;9.27;;;;;;;;;;6302597;22;20127;-76
2023/03/19 05:39:28;;;;;;;4.70;4.00;;;;;;;;;;6250683;22;20086;-78
2023/03/19 05:42:00;;;;;;;7.93;7.07;;;;;;;;;;6275922;22;20015;-77
2023/03/19 05:44:29;;;;;;;7.88;6.43;;;;;;;;;;6251587;22;20015;-76
2023/03/19 05:47:03;;;;;;;8.25;7.20;;;;;;;;;;6276414;22;20180;-76
2023/03/19 05:49:32;;;;;;;11.05;8.65;;;;;;;;;;6276060;22;20025;-75
2023/03/19 05:51:59;;;;;;;9.45;6.05;;;;;;;;;;6302359;22;20011;-74
2023/03/19 05:54:24;;;;;;;10.57;7.55;;;;;;;;;;6303014;22;20015;-76
2023/03/19 05:56:57;;;;;;;6.63;5.55;;;;;;;;;;6275988;22;20012;-78
2023/03/19 05:59:34;;;;;;;12.75;7.82;;;;;;;;;;6277104;22;20018;-77
2023/03/19 06:02:22;;;;;;;7.32;6.55;;;;;;;;;;6276326;22;20450;-77
2023/03/19 06:04:52;;;;;;;18.40;9.27;;;;;;;;;;6275915;22;20022;-77
2023/03/19 06:07:26;;;;;;;11.27;7.93;;;;;;;;;;6275699;22;20034;-78
2023/03/19 06:09:52;;;;;;;10.07;7.97;;;;;;;;;;6276107;22;20011;-77
2023/03/19 06:12:18;;;;;;;12.98;8.50;;;;;;;;;;6302976;22;20483;-79
2023/03/19 06:15:15;;;;;;;8.45;4.75;;;;;;;;;;6259837;22;20034;-75
2023/03/19 06:18:05;;;;;;;4.80;4.28;;;;;;;;;;6288270;22;20482;-76
2023/03/19 06:20:31;;;;;;;4.85;4.45;;;;;;;;;;6252773;22;20007;-77
2023/03/19 06:22:57;;;;;;;7.47;5.90;;;;;;;;;;6277829;22;20470;-77
2023/03/19 06:25:23;;;;;;;6.85;6.00;;;;;;;;;;6277949;22;20015;-77
2023/03/19 06:27:50;;;;;;;9.88;6.00;;;;;;;;;;6227641;22;20014;-76
2023/03/19 06:30:31;;;;;;;5.55;5.00;;;;;;;;;;6280645;22;20038;-76
2023/03/19 06:32:59;;;;;;;7.65;5.30;;;;;;;;;;6270191;22;20094;-76
2023/03/19 06:35:25;;;;;;;10.25;5.75;;;;;;;;;;6273637;22;20008;-76
2023/03/19 06:37:52;;;;;;;10.73;6.68;;;;;;;;;;6275824;22;20015;-74
2023/03/19 06:40:18;;;;;;;5.88;5.38;;;;;;;;;;6301817;22;20037;-75
2023/03/19 06:42:45;;;;;;;6.40;5.88;;;;;;;;;;6303334;22;20386;-75
2023/03/19 06:45:17;;;;;;;5.40;5.00;;;;;;;;;;6274784;22;20022;-77
2023/03/19 06:47:44;;;;;;;6.40;5.80;;;;;;;;;;6277984;22;20015;-76
2023/03/19 06:50:11;;;;;;;6.03;5.20;;;;;;;;;;6304777;22;20022;-76
2023/03/19 06:52:37;;;;;;;4.63;4.30;;;;;;;;;;6251908;22;20023;-75
2023/03/19 06:55:04;;;;;;;4.70;4.35;;;;;;;;;;6304100;22;20011;-75
2023/03/19 06:57:30;;;;;;;5.10;4.70;;;;;;;;;;6305368;22;20022;-76
2023/03/19 06:59:56;;;;;;;5.00;4.43;;;;;;;;;;6315080;22;20081;-76
2023/03/19 07:02:22;;;;;;;4.78;4.38;;;;;;;;;;6314527;22;20015;-73
2023/03/19 07:04:51;;;;;;;5.85;4.72;;;;;;;;;;6313836;22;20011;-75
2023/03/19 07:07:17;;;;;;;4.50;4.20;;;;;;;;;;6315801;22;20007;-76
2023/03/19 07:09:43;;;;;;;6.82;5.03;;;;;;;;;;6306928;22;20099;-77
2023/03/19 07:12:10;;;;;;;4.93;4.63;;;;;;;;;;6276754;22;20039;-76
2023/03/19 07:14:36;;;;;;;5.57;5.07;;;;;;;;;;6275780;22;20104;-76
2023/03/19 07:17:01;;;;;;;5.40;4.55;;;;;;;;;;6274277;22;20109;-76
2023/03/19 07:19:27;;;;;;;7.50;4.70;;;;;;;;;;6274407;22;20018;-78
2023/03/19 07:21:53;;;;;;;4.43;4.13;;;;;;;;;;6301289;22;20098;-76
2023/03/19 07:24:19;;;;;;;5.68;4.60;;;;;;;;;;6275529;22;20019;-78
2023/03/19 07:26:46;;;;;;;5.72;4.95;;;;;;;;;;6302020;22;20080;-72
2023/03/19 07:29:12;;;;;;;4.80;3.67;;;;;;;;;;6275368;22;20050;-74
2023/03/19 07:31:38;;;;;;;8.35;5.30;;;;;;;;;;6302072;22;20385;-74
2023/03/19 07:34:05;;;;;;;7.07;5.35;;;;;;;;;;6274450;22;20348;-75
2023/03/19 07:36:30;;;;;;;8.10;5.18;;;;;;;;;;6249165;22;20039;-74
2023/03/19 07:38:56;;;;;;;5.47;4.97;;;;;;;;;;6274548;22;20073;-74
2023/03/19 07:41:22;;;;;;;5.63;5.18;;;;;;;;;;6271898;22;20037;-74
2023/03/19 07:43:49;;;;;;;9.00;5.32;;;;;;;;;;6271992;22;20023;-74
2023/03/19 07:46:16;;;;;;;5.57;5.07;;;;;;;;;;6298523;22;20010;-75
2023/03/19 07:48:42;;;;;;;5.90;5.40;;;;;;;;;;6300418;22;20011;-75
2023/03/19 07:51:08;;;;;;;8.32;5.70;;;;;;;;;;6273470;22;20011;-75
2023/03/19 07:53:34;;;;;;;5.45;4.90;;;;;;;;;;6299582;22;20022;-75
2023/03/19 07:56:00;;;;;;;6.35;5.80;;;;;;;;;;6301485;22;20026;-75
2023/03/19 07:58:26;;;;;;;8.65;6.25;;;;;;;;;;6274381;22;20469;-75
2023/03/19 08:00:52;;;;;;;6.00;5.20;;;;;;;;;;6302135;22;20011;-75
2023/03/19 08:03:18;;;;;;;6.10;5.35;;;;;;;;;;6303265;22;20061;-75
2023/03/19 08:05:47;;;;;;;6.40;5.88;;;;;;;;;;6303564;22;20015;-74
2023/03/19 08:08:14;;;;;;;6.55;4.82;;;;;;;;;;6303446;22;20011;-75
2023/03/19 08:10:40;;;;;;;4.93;4.63;;;;;;;;;;6276177;22;20026;-75
2023/03/19 08:13:06;;;;;;;5.22;4.80;;;;;;;;;;6302929;22;20915;-75
2023/03/19 08:15:32;;;;;;;5.13;4.72;;;;;;;;;;6276481;22;20013;-75
2023/03/19 08:17:58;;;;;;;5.03;4.53;;;;;;;;;;6302554;22;20089;-74
2023/03/19 08:20:24;;;;;;;4.57;4.18;;;;;;;;;;6302617;22;20360;-74
2023/03/19 08:22:51;;;;;;;5.07;4.57;;;;;;;;;;6249950;22;20019;-74
2023/03/19 08:25:17;;;;;;;4.40;4.05;;;;;;;;;;6275958;22;20022;-75
2023/03/19 08:27:42;;;;;;;7.30;4.80;;;;;;;;;;6302832;22;20317;-74
2023/03/19 08:30:09;;;;;;;5.15;4.85;;;;;;;;;;6274463;22;20367;-74
2023/03/19 08:32:35;;;;;;;6.18;5.57;;;;;;;;;;6276924;22;20011;-74
2023/03/19 08:35:01;;;;;;;6.85;5.03;;;;;;;;;;6277162;22;20026;-75
2023/03/19 08:37:29;;;;;;;4.68;4.38;;;;;;;;;;6275067;22;20011;-74
2023/03/19 08:39:55;;;;;;;5.45;4.93;;;;;;;;;;6275126;22;20331;-74
2023/03/19 08:42:21;;;;;;;5.05;4.55;;;;;;;;;;6302585;22;20059;-75
2023/03/19 08:44:47;;;;;;;5.38;4.65;;;;;;;;;;6302503;22;20018;-75
2023/03/19 08:47:14;;;;;;;4.72;4.32;;;;;;;;;;6302662;22;20018;-75
2023/03/19 08:49:40;;;;;;;5.63;3.95;;;;;;;;;;6303167;22;20455;-75
2023/03/19 08:52:06;;;;;;;3.72;3.42;;;;;;;;;;6275191;22;20010;-74
2023/03/19 08:54:32;;;;;;;4.40;4.10;;;;;;;;;;6302904;22;20096;-73
2023/03/19 08:56:59;;;;;;;7.57;5.82;;;;;;;;;;6302865;22;20007;-75
2023/03/19 08:59:25;;;;;;;4.55;4.20;;;;;;;;;;6275393;22;20418;-74
2023/03/19 09:01:51;;;;;;;5.43;4.93;;;;;;;;;;6275630;22;20102;-74
2023/03/19 09:04:18;;;;;;;5.93;5.40;;;;;;;;;;6302307;22;20065;-74
2023/03/19 09:06:44;;;;;;;5.78;5.38;;;;;;;;;;6302849;22;20022;-74
2023/03/19 09:09:10;;;;;;;5.30;4.53;;;;;;;;;;6302299;22;20018;-74
2023/03/19 09:11:36;;;;;;;5.50;4.40;;;;;;;;;;6249643;22;20099;-74
2023/03/19 09:14:02;;;;;;;4.97;4.55;;;;;;;;;;6302854;22;20056;-74
2023/03/19 09:16:30;;;;;;;4.70;4.30;;;;;;;;;;6275769;22;20479;-74
2023/03/19 09:18:56;;;;;;;4.75;4.35;;;;;;;;;;6250720;22;20018;-74
2023/03/19 09:21:22;;;;;;;4.40;4.00;;;;;;;;;;6276236;22;20015;-74
2023/03/19 09:23:48;;;;;;;5.25;4.78;;;;;;;;;;6302910;22;20023;-75
2023/03/19 09:26:14;;;;;;;4.75;4.32;;;;;;;;;;6275542;22;20015;-74
2023/03/19 09:28:41;;;;;;;4.93;4.53;;;;;;;;;;6303094;22;20329;-75
2023/03/19 09:31:08;;;;;;;6.15;4.78;;;;;;;;;;6302739;22;20015;-74
2023/03/19 09:33:34;;;;;;;5.25;4.75;;;;;;;;;;6300927;22;20491;-75
2023/03/19 09:36:00;;;;;;;5.85;5.35;;;;;;;;;;6300995;22;20003;-75
2023/03/19 09:38:27;;;;;;;5.68;5.07;;;;;;;;;;6272053;22;20359;-76
2023/03/19 09:41:13;;;;;;;6.78;5.43;;;;;;;;;;6299982;22;20007;-75
2023/03/19 09:43:56;;;;;;;7.15;5.10;;;;;;;;;;6273448;22;20026;-75
2023/03/19 09:46:45;;;;;;;5.07;4.68;;;;;;;;;;6274691;22;20095;-74
2023/03/19 09:49:13;;;;;;;7.97;5.60;;;;;;;;;;6282336;22;20031;-75
2023/03/19 09:51:46;;;;;;;6.25;5.65;;;;;;;;;;6302734;22;20014;-74
2023/03/19 09:54:16;;;;;;;7.22;5.90;;;;;;;;;;6272092;22;20055;-72
2023/03/19 09:56:42;;;;;;;5.05;4.65;;;;;;;;;;6302728;22;20094;-73
2023/03/19 09:59:08;;;;;;;4.78;4.38;;;;;;;;;;6303194;22;20046;-73
2023/03/19 10:01:34;;;;;;;17.10;11.77;;;;;;;;;;6304085;22;20019;-72
2023/03/19 10:04:00;;;;;;;5.45;4.90;;;;;;;;;;6275264;22;20058;-75
2023/03/19 10:06:32;;;;;;;4.18;3.88;;;;;;;;;;6279910;22;20007;-81
2023/03/19 10:08:58;;;;;;;4.30;4.00;;;;;;;;;;6279783;22;20022;-81
2023/03/19 10:11:36;;;;;;;3.28;3.08;;;;;;;;;;6307342;22;20015;-82
2023/03/19 10:14:08;;;;;;;4.80;4.40;;;;;;;;;;6306876;22;20060;-75
2023/03/19 10:16:35;;;;;;;6.55;5.43;;;;;;;;;;6307914;22;20007;-81
2023/03/19 10:19:01;;;;;;;5.70;5.28;;;;;;;;;;6255845;22;20090;-78
2023/03/19 10:21:27;;;;;;;5.43;4.97;;;;;;;;;;6268581;22;20007;-76
2023/03/19 10:23:54;;;;;;;5.72;5.22;;;;;;;;;;6298246;22;20356;-81
2023/03/19 10:26:21;;;;;;;15.00;5.20;;;;;;;;;;6274777;22;20015;-79
2023/03/19 10:29:13;;;;;;;8.98;6.47;;;;;;;;;;6304959;22;20086;-78
2023/03/19 10:31:43;;;;;;;6.40;5.90;;;;;;;;;;6269988;22;20016;-79
2023/03/19 10:34:26;;;;;;;8.70;5.82;;;;;;;;;;6251440;22;20011;-77
2023/03/19 10:36:57;;;;;;;5.43;4.97;;;;;;;;;;6307758;22;20011;-80
2023/03/19 10:39:23;;;;;;;6.80;5.95;;;;;;;;;;6310087;22;20007;-79
2023/03/19 10:41:56;;;;;;;5.57;5.05;;;;;;;;;;6278904;22;20092;-79
2023/03/19 10:44:22;;;;;;;5.03;4.53;;;;;;;;;;6277041;22;20019;-75
2023/03/19 10:46:48;;;;;;;8.38;5.35;;;;;;;;;;6306004;22;20591;-80
2023/03/19 10:49:15;;;;;;;7.82;5.85;;;;;;;;;;6275998;22;20011;-78
2023/03/19 10:51:45;;;;;;;6.13;5.63;;;;;;;;;;6304671;22;20014;-76
2023/03/19 10:54:17;;;;;;;6.60;5.40;;;;;;;;;;6302071;22;20007;-80
2023/03/19 10:56:44;;;;;;;6.57;5.97;;;;;;;;;;6274718;22;20119;-76
2023/03/19 10:59:32;;;;;;;6.82;6.22;;;;;;;;;;6275388;22;20087;-76
2023/03/19 11:01:58;;;;;;;10.13;5.43;;;;;;;;;;6302240;22;20007;-76
2023/03/19 11:04:28;;;;;;;7.57;5.13;;;;;;;;;;6302275;22;20691;-75
2023/03/19 11:06:55;;;;;;;6.13;5.57;;;;;;;;;;6302876;22;20012;-77
2023/03/19 11:09:23;;;;;;;9.57;5.85;;;;;;;;;;6307170;22;20015;-76
2023/03/19 11:11:52;;;;;;;5.25;4.63;;;;;;;;;;6304535;22;20379;-77
2023/03/19 11:14:24;;;;;;;6.82;4.88;;;;;;;;;;6251199;22;20011;-77
2023/03/19 11:16:50;;;;;;;5.40;4.90;;;;;;;;;;6276686;22;20015;-78
2023/03/19 11:19:18;;;;;;;6.40;4.47;;;;;;;;;;6303916;22;20011;-78
2023/03/19 11:21:45;;;;;;;4.25;3.85;;;;;;;;;;6275175;22;20037;-76
2023/03/19 11:24:11;;;;;;;5.22;4.80;;;;;;;;;;6275625;22;20033;-77
2023/03/19 11:26:37;;;;;;;5.28;4.85;;;;;;;;;;6275897;22;20086;-78
2023/03/19 11:29:04;;;;;;;5.20;4.80;;;;;;;;;;6275187;22;20419;-80
2023/03/19 11:31:33;;;;;;;4.45;4.05;;;;;;;;;;6252755;22;20011;-78
2023/03/19 11:34:02;;;;;;;14.80;4.70;;;;;;;;;;6302794;22;20470;-78
2023/03/19 11:36:28;;;;;;;4.65;4.25;;;;;;;;;;6304935;22;20007;-77
2023/03/19 11:38:57;;;;;;;5.53;5.13;;;;;;;;;;6277941;22;20011;-79
2023/03/19 11:41:42;;;;;;;5.03;4.63;;;;;;;;;;6302932;22;20011;-79
2023/03/19 11:44:26;;;;;;;3.97;3.47;;;;;;;;;;6302955;22;20019;-82
2023/03/19 11:46:54;;;;;;;2.95;2.45;;;;;;;;;;6304034;22;20027;-78
2023/03/19 11:49:24;;;;;;;4.50;4.10;;;;;;;;;;6304165;22;20014;-79
2023/03/19 11:51:51;;;;;;;4.15;3.88;;;;;;;;;;6277856;22;20014;-79
2023/03/19 11:54:17;;;;;;;4.65;3.70;;;;;;;;;;6281020;22;20401;-81
2023/03/19 11:56:49;;;;;;;4.60;2.92;;;;;;;;;;6303950;22;20447;-78
2023/03/19 11:59:31;;;;;;;4.18;3.70;;;;;;;;;;6303305;22;20015;-79
2023/03/19 12:02:00;;;;;;;3.47;3.28;;;;;;;;;;6304100;22;20010;-78
2023/03/19 12:04:44;;;;;;;3.40;3.10;;;;;;;;;;6305037;22;20026;-78
2023/03/19 12:07:20;;;;;;;3.80;3.50;;;;;;;;;;6304183;22;20011;-77
2023/03/19 12:09:59;;;;;;;5.22;3.00;;;;;;;;;;6277778;22;20015;-78
2023/03/19 12:12:30;;;;;;;4.43;4.00;;;;;;;;;;6254304;22;20011;-77
2023/03/19 12:14:56;;;;;;;4.22;3.88;;;;;;;;;;6279163;22;20018;-77
2023/03/19 12:17:28;;;;;;;5.25;4.65;;;;;;;;;;6316854;22;20022;-76
2023/03/19 12:19:55;;;;;;;3.80;3.50;;;;;;;;;;6263379;22;20026;-77
2023/03/19 12:22:24;;;;;;;4.68;3.97;;;;;;;;;;6288190;22;20065;-75
2023/03/19 12:25:02;;;;;;;4.47;2.95;;;;;;;;;;6279897;22;20029;-77
2023/03/19 12:27:29;;;;;;;4.25;3.88;;;;;;;;;;6276042;22;20153;-77
2023/03/19 12:29:57;;;;;;;3.70;3.40;;;;;;;;;;6303146;22;20061;-76
2023/03/19 12:32:34;;;;;;;5.05;4.22;;;;;;;;;;6276134;22;20410;-76
2023/03/19 12:35:15;;;;;;;2.30;2.20;;;;;;;;;;6250471;22;20012;-79
2023/03/19 12:37:41;;;;;;;;;;;;;;;;;;6279911;22;20007;-76
2023/03/19 12:40:16;;;;;;;3.95;2.97;;;;;;;;;;6280920;22;20270;-75
2023/03/19 12:42:42;;;;;;;2.70;2.50;;;;;;;;;;6284451;22;20455;-76
2023/03/19 12:45:15;;;;;;;2.97;2.78;;;;;;;;;;6309490;22;20072;-76
2023/03/19 12:47:41;;;;;;;3.78;3.47;;;;;;;;;;6284033;22;20018;-77
2023/03/19 12:50:11;;;;;;;7.88;3.97;;;;;;;;;;6257407;22;20090;-75
2023/03/19 12:52:37;;;;;;;4.22;3.80;;;;;;;;;;6284170;22;20404;-76
2023/03/19 12:55:16;;;;;;;3.72;3.03;;;;;;;;;;6313866;22;20396;-78
2023/03/19 12:57:58;;;;;;;3.53;3.08;;;;;;;;;;6311523;22;20018;-79
2023/03/19 13:00:34;;;;;;;3.17;2.97;;;;;;;;;;6252853;22;20011;-77
2023/03/19 13:03:00;;;;;;;4.50;3.15;;;;;;;;;;6302977;22;20375;-75
2023/03/19 13:05:31;;;;;;;3.78;3.33;;;;;;;;;;6274913;22;20018;-75
2023/03/19 13:07:57;;;;;;;;;;;;;;;;;;6302945;22;20007;-78
2023/03/19 13:10:24;;;;;;;4.43;3.72;;;;;;;;;;6275175;22;20064;-78
2023/03/19 13:12:50;;;;;;;4.38;3.97;;;;;;;;;;6276561;22;20011;-80
2023/03/19 13:15:19;;;;;;;6.20;3.47;;;;;;;;;;6277480;22;20080;-81
2023/03/19 13:17:46;;;;;;;4.00;3.60;;;;;;;;;;6309024;22;20018;-81
2023/03/19 13:20:19;;;;;;;5.57;3.65;;;;;;;;;;6294529;22;20011;-82
2023/03/19 13:22:54;;;;;;;4.05;3.72;;;;;;;;;;6287340;22;19996;-81
2023/03/19 13:25:22;;;;;;;4.15;3.85;;;;;;;;;;6311733;22;20011;-82
2023/03/19 13:27:55;;;;;;;3.42;3.08;;;;;;;;;;6314548;22;20011;-83
2023/03/19 13:30:21;;;;;;;5.55;3.70;;;;;;;;;;6290237;22;20011;-83
2023/03/19 13:32:49;;;;;;;4.75;4.00;;;;;;;;;;6313334;22;20360;-81
2023/03/19 13:35:15;;;;;;;4.82;3.90;;;;;;;;;;6308974;22;20015;-81
2023/03/19 13:37:41;;;;;;;2.88;2.67;;;;;;;;;;6309755;22;20015;-81
2023/03/19 13:40:26;;;;;;;4.00;3.70;;;;;;;;;;6281746;22;20015;-77
2023/03/19 13:42:56;;;;;;;3.88;3.58;;;;;;;;;;6305484;22;20026;-80
2023/03/19 13:45:29;;;;;;;5.82;4.13;;;;;;;;;;6308603;22;20035;-80
2023/03/19 13:47:57;;;;;;;4.88;3.90;;;;;;;;;;6317487;22;20011;-79
2023/03/19 13:50:24;;;;;;;6.45;4.13;;;;;;;;;;6287654;22;20034;-79
2023/03/19 13:52:51;;;;;;;4.90;4.50;;;;;;;;;;6285729;22;20011;-76
2023/03/19 13:55:23;;;;;;;4.70;4.40;;;;;;;;;;6264198;22;20075;-77
2023/03/19 13:58:11;;;;;;;3.90;3.60;;;;;;;;;;6321378;22;20015;-79
2023/03/19 14:00:43;;;;;;;3.13;2.80;;;;;;;;;;6295412;22;20090;-79
2023/03/19 14:03:20;;;;;;;3.08;2.78;;;;;;;;;;6307506;22;20121;-77
2023/03/19 14:05:46;;;;;;;4.70;4.30;;;;;;;;;;6257804;22;20015;-82
2023/03/19 14:08:13;;;;;;;4.75;4.35;;;;;;;;;;6306180;22;20014;-79
2023/03/19 14:10:45;;;;;;;4.72;4.07;;;;;;;;;;6306492;22;20064;-81
2023/03/19 14:13:10;;;;;;;;;;;;;;;;;;6254305;22;20100;-80
2023/03/19 14:15:38;;;;;;;4.03;3.70;;;;;;;;;;6306389;22;20297;-81
2023/03/19 14:18:06;;;;;;;9.50;4.93;;;;;;;;;;6279150;22;20030;-79
2023/03/19 14:20:53;;;;;;;4.70;4.30;;;;;;;;;;6279151;22;20333;-78
2023/03/19 14:23:22;;;;;;;9.23;4.45;;;;;;;;;;6255527;22;20045;-78
2023/03/19 14:25:54;;;;;;;5.25;3.65;;;;;;;;;;6304356;22;20011;-82
2023/03/19 14:28:35;;;;;;;7.18;4.07;;;;;;;;;;6313033;22;20011;-83
2023/03/19 14:31:01;;;;;;;4.55;4.15;;;;;;;;;;6292708;22;20035;-84
2023/03/19 14:33:43;;;;;;;8.48;3.15;;;;;;;;;;6298426;22;20022;-83
2023/03/19 14:36:17;;;;;;;3.72;3.42;;;;;;;;;;6323577;22;20007;-83
2023/03/19 14:38:46;;;;;;;4.93;4.50;;;;;;;;;;6301638;22;20017;-84
2023/03/19 14:41:14;;;;;;;7.20;4.05;;;;;;;;;;6276964;22;20031;-84
2023/03/19 14:43:57;;;;;;;6.10;5.03;;;;;;;;;;6330043;22;20030;-86
2023/03/19 14:46:25;;;;;;;6.10;4.75;;;;;;;;;;6331771;22;20037;-83
2023/03/19 14:49:01;;;;;;;8.52;4.70;;;;;;;;;;6305047;22;20063;-84
2023/03/19 14:51:36;;;;;;;5.20;4.28;;;;;;;;;;6326666;22;20011;-83
2023/03/19 14:54:31;;;;;;;9.52;4.68;;;;;;;;;;6301809;22;20018;-85
2023/03/19 14:56:57;;;;;;;5.57;5.07;;;;;;;;;;6297600;22;20007;-83